sensor_id;sensor_type;location;lat;lon;timestamp;P1;durP1;ratioP1;P2;durP2;ratioP2
69081;SDS011;56184;51.986;5.760;2022-12-07T00:02:21;7.13;;;4.88;;
69081;SDS011;56184;51.986;5.760;2022-12-07T00:05:00;10.05;;;5.47;;
69081;SDS011;56184;51.986;5.760;2022-12-07T00:07:27;6.80;;;4.70;;
69081;SDS011;56184;51.986;5.760;2022-12-07T00:10:08;7.75;;;5.07;;
69081;SDS011;56184;51.986;5.760;2022-12-07T00:12:36;8.37;;;4.80;;
69081;SDS011;56184;51.986;5.760;2022-12-07T00:15:07;11.90;;;4.57;;
69081;SDS011;56184;51.986;5.760;2022-12-07T00:17:33;8.35;;;4.68;;
69081;SDS011;56184;51.986;5.760;2022-12-07T00:19:58;8.60;;;4.93;;
69081;SDS011;56184;51.986;5.760;2022-12-07T00:22:59;9.95;;;4.78;;
69081;SDS011;56184;51.986;5.760;2022-12-07T00:25:33;5.45;;;4.38;;
69081;SDS011;56184;51.986;5.760;2022-12-07T00:28:10;8.90;;;4.70;;
69081;SDS011;56184;51.986;5.760;2022-12-07T00:30:48;8.55;;;4.63;;
69081;SDS011;56184;51.986;5.760;2022-12-07T00:33:26;7.85;;;4.72;;
69081;SDS011;56184;51.986;5.760;2022-12-07T00:35:56;7.22;;;4.50;;
69081;SDS011;56184;51.986;5.760;2022-12-07T00:38:48;8.85;;;4.45;;
69081;SDS011;56184;51.986;5.760;2022-12-07T00:41:26;6.35;;;4.25;;
69081;SDS011;56184;51.986;5.760;2022-12-07T00:43:53;11.05;;;4.80;;
69081;SDS011;56184;51.986;5.760;2022-12-07T00:46:22;10.98;;;4.50;;
69081;SDS011;56184;51.986;5.760;2022-12-07T00:48:52;7.72;;;4.60;;
69081;SDS011;56184;51.986;5.760;2022-12-07T00:51:19;9.50;;;4.50;;
69081;SDS011;56184;51.986;5.760;2022-12-07T00:53:49;9.32;;;4.00;;
69081;SDS011;56184;51.986;5.760;2022-12-07T00:56:26;6.25;;;3.85;;
69081;SDS011;56184;51.986;5.760;2022-12-07T00:58:57;7.43;;;3.88;;
69081;SDS011;56184;51.986;5.760;2022-12-07T01:01:42;7.88;;;3.80;;
69081;SDS011;56184;51.986;5.760;2022-12-07T01:04:08;5.70;;;4.00;;
69081;SDS011;56184;51.986;5.760;2022-12-07T01:09:18;11.48;;;3.95;;
69081;SDS011;56184;51.986;5.760;2022-12-07T01:11:55;5.70;;;3.80;;
69081;SDS011;56184;51.986;5.760;2022-12-07T01:14:29;4.70;;;3.50;;
69081;SDS011;56184;51.986;5.760;2022-12-07T01:16:55;8.00;;;3.95;;
69081;SDS011;56184;51.986;5.760;2022-12-07T01:19:31;8.98;;;4.20;;
69081;SDS011;56184;51.986;5.760;2022-12-07T01:21:59;9.95;;;3.88;;
69081;SDS011;56184;51.986;5.760;2022-12-07T01:24:40;6.43;;;3.97;;
69081;SDS011;56184;51.986;5.760;2022-12-07T01:27:18;8.93;;;4.32;;
69081;SDS011;56184;51.986;5.760;2022-12-07T01:29:44;9.25;;;3.70;;
69081;SDS011;56184;51.986;5.760;2022-12-07T01:32:24;8.15;;;4.00;;
69081;SDS011;56184;51.986;5.760;2022-12-07T01:34:50;6.78;;;3.85;;
69081;SDS011;56184;51.986;5.760;2022-12-07T01:37:15;5.70;;;3.92;;
69081;SDS011;56184;51.986;5.760;2022-12-07T01:39:56;6.40;;;3.75;;
69081;SDS011;56184;51.986;5.760;2022-12-07T01:42:21;8.30;;;3.72;;
69081;SDS011;56184;51.986;5.760;2022-12-07T01:48:32;10.85;;;3.50;;
69081;SDS011;56184;51.986;5.760;2022-12-07T01:51:06;5.18;;;3.55;;
69081;SDS011;56184;51.986;5.760;2022-12-07T01:53:35;11.33;;;3.47;;
69081;SDS011;56184;51.986;5.760;2022-12-07T01:56:05;8.55;;;3.47;;
69081;SDS011;56184;51.986;5.760;2022-12-07T01:58:33;7.57;;;3.55;;
69081;SDS011;56184;51.986;5.760;2022-12-07T02:00:59;7.38;;;3.53;;
69081;SDS011;56184;51.986;5.760;2022-12-07T02:03:32;6.70;;;3.88;;
69081;SDS011;56184;51.986;5.760;2022-12-07T02:06:07;8.75;;;3.70;;
69081;SDS011;56184;51.986;5.760;2022-12-07T02:08:49;6.82;;;3.47;;
69081;SDS011;56184;51.986;5.760;2022-12-07T02:11:18;10.23;;;3.70;;
69081;SDS011;56184;51.986;5.760;2022-12-07T02:14:00;7.68;;;3.60;;
69081;SDS011;56184;51.986;5.760;2022-12-07T02:16:43;9.15;;;3.60;;
69081;SDS011;56184;51.986;5.760;2022-12-07T02:31:18;7.30;;;3.80;;
69081;SDS011;56184;51.986;5.760;2022-12-07T02:33:49;10.65;;;3.80;;
69081;SDS011;56184;51.986;5.760;2022-12-07T02:36:30;7.75;;;3.33;;
69081;SDS011;56184;51.986;5.760;2022-12-07T02:39:34;13.15;;;4.00;;
69081;SDS011;56184;51.986;5.760;2022-12-07T02:42:34;6.85;;;3.50;;
69081;SDS011;56184;51.986;5.760;2022-12-07T02:45:28;6.47;;;3.30;;
69081;SDS011;56184;51.986;5.760;2022-12-07T02:48:00;7.07;;;3.40;;
69081;SDS011;56184;51.986;5.760;2022-12-07T02:54:07;6.32;;;3.13;;
69081;SDS011;56184;51.986;5.760;2022-12-07T02:57:26;5.97;;;2.95;;
69081;SDS011;56184;51.986;5.760;2022-12-07T03:00:08;9.65;;;3.13;;
69081;SDS011;56184;51.986;5.760;2022-12-07T03:03:04;9.75;;;3.25;;
69081;SDS011;56184;51.986;5.760;2022-12-07T03:05:59;8.02;;;3.10;;
69081;SDS011;56184;51.986;5.760;2022-12-07T03:11:19;8.05;;;2.88;;
69081;SDS011;56184;51.986;5.760;2022-12-07T03:14:09;11.07;;;3.20;;
69081;SDS011;56184;51.986;5.760;2022-12-07T03:19:14;9.65;;;2.97;;
69081;SDS011;56184;51.986;5.760;2022-12-07T03:21:43;10.18;;;2.72;;
69081;SDS011;56184;51.986;5.760;2022-12-07T03:24:15;8.98;;;3.03;;
69081;SDS011;56184;51.986;5.760;2022-12-07T03:26:47;8.30;;;2.80;;
69081;SDS011;56184;51.986;5.760;2022-12-07T03:31:51;5.85;;;2.72;;
69081;SDS011;56184;51.986;5.760;2022-12-07T03:43:50;12.43;;;2.92;;
69081;SDS011;56184;51.986;5.760;2022-12-07T03:48:54;7.25;;;3.08;;
69081;SDS011;56184;51.986;5.760;2022-12-07T03:51:56;7.72;;;2.75;;
69081;SDS011;56184;51.986;5.760;2022-12-07T04:00:23;4.72;;;2.38;;
69081;SDS011;56184;51.986;5.760;2022-12-07T04:02:52;5.45;;;1.98;;
69081;SDS011;56184;51.986;5.760;2022-12-07T04:05:37;5.75;;;2.35;;
69081;SDS011;56184;51.986;5.760;2022-12-07T04:08:06;4.47;;;2.00;;
69081;SDS011;56184;51.986;5.760;2022-12-07T04:10:34;8.23;;;2.40;;
69081;SDS011;56184;51.986;5.760;2022-12-07T04:13:03;7.32;;;2.03;;
69081;SDS011;56184;51.986;5.760;2022-12-07T04:18:30;9.13;;;2.10;;
69081;SDS011;56184;51.986;5.760;2022-12-07T04:20:56;5.57;;;1.80;;
69081;SDS011;56184;51.986;5.760;2022-12-07T04:23:22;5.28;;;2.00;;
69081;SDS011;56184;51.986;5.760;2022-12-07T04:25:50;11.18;;;2.00;;
69081;SDS011;56184;51.986;5.760;2022-12-07T04:28:16;5.35;;;1.95;;
69081;SDS011;56184;51.986;5.760;2022-12-07T04:30:47;11.23;;;2.10;;
69081;SDS011;56184;51.986;5.760;2022-12-07T04:36:46;4.55;;;2.22;;
69081;SDS011;56184;51.986;5.760;2022-12-07T04:39:27;5.63;;;2.08;;
69081;SDS011;56184;51.986;5.760;2022-12-07T04:41:55;5.80;;;1.88;;
69081;SDS011;56184;51.986;5.760;2022-12-07T04:44:22;10.73;;;2.00;;
69081;SDS011;56184;51.986;5.760;2022-12-07T04:46:49;4.53;;;1.73;;
69081;SDS011;56184;51.986;5.760;2022-12-07T04:49:33;12.35;;;2.17;;
69081;SDS011;56184;51.986;5.760;2022-12-07T04:52:10;9.68;;;1.90;;
69081;SDS011;56184;51.986;5.760;2022-12-07T04:54:41;9.40;;;1.73;;
69081;SDS011;56184;51.986;5.760;2022-12-07T04:57:14;6.95;;;2.10;;
69081;SDS011;56184;51.986;5.760;2022-12-07T04:59:39;4.28;;;1.83;;
69081;SDS011;56184;51.986;5.760;2022-12-07T05:02:08;7.50;;;1.85;;
69081;SDS011;56184;51.986;5.760;2022-12-07T05:04:34;4.60;;;1.83;;
69081;SDS011;56184;51.986;5.760;2022-12-07T05:06:59;6.63;;;1.80;;
69081;SDS011;56184;51.986;5.760;2022-12-07T05:09:31;4.95;;;1.77;;
69081;SDS011;56184;51.986;5.760;2022-12-07T05:11:57;6.53;;;1.73;;
69081;SDS011;56184;51.986;5.760;2022-12-07T05:14:37;5.88;;;1.60;;
69081;SDS011;56184;51.986;5.760;2022-12-07T05:17:18;6.55;;;1.65;;
69081;SDS011;56184;51.986;5.760;2022-12-07T05:19:52;4.90;;;1.52;;
69081;SDS011;56184;51.986;5.760;2022-12-07T05:22:24;4.57;;;1.63;;
69081;SDS011;56184;51.986;5.760;2022-12-07T05:24:53;4.55;;;1.58;;
69081;SDS011;56184;51.986;5.760;2022-12-07T05:27:31;8.35;;;1.83;;
69081;SDS011;56184;51.986;5.760;2022-12-07T05:30:09;8.32;;;1.80;;
69081;SDS011;56184;51.986;5.760;2022-12-07T05:32:38;6.22;;;1.75;;
69081;SDS011;56184;51.986;5.760;2022-12-07T05:35:08;7.05;;;2.30;;
69081;SDS011;56184;51.986;5.760;2022-12-07T05:37:34;5.93;;;2.00;;
69081;SDS011;56184;51.986;5.760;2022-12-07T05:40:00;8.10;;;2.00;;
69081;SDS011;56184;51.986;5.760;2022-12-07T05:42:25;7.45;;;2.28;;
69081;SDS011;56184;51.986;5.760;2022-12-07T05:44:51;8.52;;;2.28;;
69081;SDS011;56184;51.986;5.760;2022-12-07T05:47:29;8.52;;;2.28;;
69081;SDS011;56184;51.986;5.760;2022-12-07T05:49:54;9.55;;;2.38;;
69081;SDS011;56184;51.986;5.760;2022-12-07T05:52:20;5.75;;;2.00;;
69081;SDS011;56184;51.986;5.760;2022-12-07T05:54:55;7.32;;;2.28;;
69081;SDS011;56184;51.986;5.760;2022-12-07T05:57:21;8.73;;;2.58;;
69081;SDS011;56184;51.986;5.760;2022-12-07T05:59:47;6.75;;;2.33;;
69081;SDS011;56184;51.986;5.760;2022-12-07T06:02:13;7.15;;;2.70;;
69081;SDS011;56184;51.986;5.760;2022-12-07T06:08:10;8.63;;;3.30;;
69081;SDS011;56184;51.986;5.760;2022-12-07T06:10:45;14.25;;;6.80;;
69081;SDS011;56184;51.986;5.760;2022-12-07T06:16:32;10.25;;;4.95;;
69081;SDS011;56184;51.986;5.760;2022-12-07T06:22:13;7.25;;;2.80;;
69081;SDS011;56184;51.986;5.760;2022-12-07T06:25:02;7.30;;;2.13;;
69081;SDS011;56184;51.986;5.760;2022-12-07T06:27:37;7.82;;;2.10;;
69081;SDS011;56184;51.986;5.760;2022-12-07T06:30:09;6.68;;;2.10;;
69081;SDS011;56184;51.986;5.760;2022-12-07T06:35:25;8.68;;;2.60;;
69081;SDS011;56184;51.986;5.760;2022-12-07T06:37:57;3.33;;;1.90;;
69081;SDS011;56184;51.986;5.760;2022-12-07T06:40:23;7.47;;;2.10;;
69081;SDS011;56184;51.986;5.760;2022-12-07T06:42:54;11.20;;;3.45;;
69081;SDS011;56184;51.986;5.760;2022-12-07T06:45:29;3.35;;;2.35;;
69081;SDS011;56184;51.986;5.760;2022-12-07T06:48:01;6.00;;;2.20;;
69081;SDS011;56184;51.986;5.760;2022-12-07T06:50:27;5.07;;;2.00;;
69081;SDS011;56184;51.986;5.760;2022-12-07T06:52:52;8.55;;;2.00;;
69081;SDS011;56184;51.986;5.760;2022-12-07T06:55:18;5.95;;;1.85;;
69081;SDS011;56184;51.986;5.760;2022-12-07T06:57:48;6.70;;;1.70;;
69081;SDS011;56184;51.986;5.760;2022-12-07T07:00:14;7.95;;;1.60;;
69081;SDS011;56184;51.986;5.760;2022-12-07T07:02:41;4.85;;;1.65;;
69081;SDS011;56184;51.986;5.760;2022-12-07T07:05:19;10.73;;;1.85;;
69081;SDS011;56184;51.986;5.760;2022-12-07T07:07:47;12.38;;;1.80;;
69081;SDS011;56184;51.986;5.760;2022-12-07T07:10:21;7.15;;;2.10;;
69081;SDS011;56184;51.986;5.760;2022-12-07T07:15:50;9.82;;;2.10;;
69081;SDS011;56184;51.986;5.760;2022-12-07T07:18:22;13.65;;;1.98;;
69081;SDS011;56184;51.986;5.760;2022-12-07T07:21:00;13.50;;;1.90;;
69081;SDS011;56184;51.986;5.760;2022-12-07T07:23:28;11.30;;;1.92;;
69081;SDS011;56184;51.986;5.760;2022-12-07T07:26:08;6.38;;;1.63;;
69081;SDS011;56184;51.986;5.760;2022-12-07T07:28:34;5.20;;;1.60;;
69081;SDS011;56184;51.986;5.760;2022-12-07T07:30:59;13.75;;;2.85;;
69081;SDS011;56184;51.986;5.760;2022-12-07T07:36:14;5.78;;;2.08;;
69081;SDS011;56184;51.986;5.760;2022-12-07T07:38:51;7.70;;;2.25;;
69081;SDS011;56184;51.986;5.760;2022-12-07T07:41:17;7.43;;;2.00;;
69081;SDS011;56184;51.986;5.760;2022-12-07T07:43:58;6.80;;;2.08;;
69081;SDS011;56184;51.986;5.760;2022-12-07T07:46:24;8.15;;;1.90;;
69081;SDS011;56184;51.986;5.760;2022-12-07T07:48:49;8.90;;;1.63;;
69081;SDS011;56184;51.986;5.760;2022-12-07T07:51:15;5.93;;;1.65;;
69081;SDS011;56184;51.986;5.760;2022-12-07T07:53:52;8.20;;;2.08;;
69081;SDS011;56184;51.986;5.760;2022-12-07T07:56:17;7.72;;;2.08;;
69081;SDS011;56184;51.986;5.760;2022-12-07T07:58:43;8.65;;;1.75;;
69081;SDS011;56184;51.986;5.760;2022-12-07T08:01:15;9.45;;;2.08;;
69081;SDS011;56184;51.986;5.760;2022-12-07T08:03:41;8.80;;;2.10;;
69081;SDS011;56184;51.986;5.760;2022-12-07T08:06:07;7.00;;;1.83;;
69081;SDS011;56184;51.986;5.760;2022-12-07T08:08:32;15.80;;;2.95;;
69081;SDS011;56184;51.986;5.760;2022-12-07T08:10:58;7.70;;;2.15;;
69081;SDS011;56184;51.986;5.760;2022-12-07T08:13:26;11.15;;;2.10;;
69081;SDS011;56184;51.986;5.760;2022-12-07T08:18:56;9.05;;;2.30;;
69081;SDS011;56184;51.986;5.760;2022-12-07T08:21:37;5.78;;;1.75;;
69081;SDS011;56184;51.986;5.760;2022-12-07T08:24:12;10.00;;;2.13;;
69081;SDS011;56184;51.986;5.760;2022-12-07T08:27:24;5.10;;;1.50;;
69081;SDS011;56184;51.986;5.760;2022-12-07T08:29:58;4.68;;;1.40;;
69081;SDS011;56184;51.986;5.760;2022-12-07T08:32:23;6.72;;;1.60;;
69081;SDS011;56184;51.986;5.760;2022-12-07T08:34:49;8.93;;;1.90;;
69081;SDS011;56184;51.986;5.760;2022-12-07T08:37:14;4.95;;;1.50;;
69081;SDS011;56184;51.986;5.760;2022-12-07T08:39:40;6.55;;;1.98;;
69081;SDS011;56184;51.986;5.760;2022-12-07T08:42:06;8.68;;;2.20;;
69081;SDS011;56184;51.986;5.760;2022-12-07T08:44:31;7.90;;;2.20;;
69081;SDS011;56184;51.986;5.760;2022-12-07T08:46:58;11.75;;;3.78;;
69081;SDS011;56184;51.986;5.760;2022-12-07T08:49:28;13.07;;;2.92;;
69081;SDS011;56184;51.986;5.760;2022-12-07T08:51:58;18.80;;;5.53;;
69081;SDS011;56184;51.986;5.760;2022-12-07T08:54:23;14.45;;;4.68;;
69081;SDS011;56184;51.986;5.760;2022-12-07T08:56:55;11.35;;;2.30;;
69081;SDS011;56184;51.986;5.760;2022-12-07T08:59:21;6.45;;;1.95;;
69081;SDS011;56184;51.986;5.760;2022-12-07T09:01:47;7.55;;;2.58;;
69081;SDS011;56184;51.986;5.760;2022-12-07T09:04:13;9.95;;;2.22;;
69081;SDS011;56184;51.986;5.760;2022-12-07T09:06:49;7.13;;;2.20;;
69081;SDS011;56184;51.986;5.760;2022-12-07T09:09:15;10.35;;;2.78;;
69081;SDS011;56184;51.986;5.760;2022-12-07T09:11:52;9.52;;;2.60;;
69081;SDS011;56184;51.986;5.760;2022-12-07T09:14:18;8.13;;;3.65;;
69081;SDS011;56184;51.986;5.760;2022-12-07T09:16:47;12.75;;;3.65;;
69081;SDS011;56184;51.986;5.760;2022-12-07T09:19:21;8.40;;;2.80;;
69081;SDS011;56184;51.986;5.760;2022-12-07T09:21:47;13.52;;;4.45;;
69081;SDS011;56184;51.986;5.760;2022-12-07T09:24:17;10.77;;;2.95;;
69081;SDS011;56184;51.986;5.760;2022-12-07T09:27:01;10.32;;;3.97;;
69081;SDS011;56184;51.986;5.760;2022-12-07T09:29:29;9.38;;;2.75;;
69081;SDS011;56184;51.986;5.760;2022-12-07T09:32:01;7.13;;;2.78;;
69081;SDS011;56184;51.986;5.760;2022-12-07T09:34:39;16.67;;;4.90;;
69081;SDS011;56184;51.986;5.760;2022-12-07T09:37:04;11.88;;;3.92;;
69081;SDS011;56184;51.986;5.760;2022-12-07T09:39:31;12.32;;;4.13;;
69081;SDS011;56184;51.986;5.760;2022-12-07T09:42:17;12.27;;;2.35;;
69081;SDS011;56184;51.986;5.760;2022-12-07T09:47:57;9.23;;;2.33;;
69081;SDS011;56184;51.986;5.760;2022-12-07T09:50:36;10.95;;;2.40;;
69081;SDS011;56184;51.986;5.760;2022-12-07T09:58:43;8.32;;;2.35;;
69081;SDS011;56184;51.986;5.760;2022-12-07T10:04:32;9.85;;;2.20;;
69081;SDS011;56184;51.986;5.760;2022-12-07T10:06:57;4.18;;;1.90;;
69081;SDS011;56184;51.986;5.760;2022-12-07T10:09:23;9.00;;;2.03;;
69081;SDS011;56184;51.986;5.760;2022-12-07T10:14:36;7.30;;;2.60;;
69081;SDS011;56184;51.986;5.760;2022-12-07T10:20:16;5.88;;;2.30;;
69081;SDS011;56184;51.986;5.760;2022-12-07T10:23:03;6.55;;;1.60;;
69081;SDS011;56184;51.986;5.760;2022-12-07T10:25:34;5.97;;;1.48;;
69081;SDS011;56184;51.986;5.760;2022-12-07T10:28:22;10.20;;;2.65;;
69081;SDS011;56184;51.986;5.760;2022-12-07T10:30:51;5.65;;;1.70;;
69081;SDS011;56184;51.986;5.760;2022-12-07T10:33:38;7.65;;;1.60;;
69081;SDS011;56184;51.986;5.760;2022-12-07T10:38:53;6.68;;;1.90;;
69081;SDS011;56184;51.986;5.760;2022-12-07T10:41:28;4.55;;;1.48;;
69081;SDS011;56184;51.986;5.760;2022-12-07T10:43:55;5.68;;;1.60;;
69081;SDS011;56184;51.986;5.760;2022-12-07T10:46:36;6.13;;;1.40;;
69081;SDS011;56184;51.986;5.760;2022-12-07T10:52:02;6.45;;;1.88;;
69081;SDS011;56184;51.986;5.760;2022-12-07T11:00:04;7.63;;;1.30;;
69081;SDS011;56184;51.986;5.760;2022-12-07T11:02:54;7.88;;;1.30;;
69081;SDS011;56184;51.986;5.760;2022-12-07T11:05:44;6.10;;;1.40;;
69081;SDS011;56184;51.986;5.760;2022-12-07T11:13:48;5.65;;;1.30;;
69081;SDS011;56184;51.986;5.760;2022-12-07T11:16:34;6.68;;;1.55;;
69081;SDS011;56184;51.986;5.760;2022-12-07T11:25:14;2.97;;;1.27;;
69081;SDS011;56184;51.986;5.760;2022-12-07T11:30:56;8.15;;;1.40;;
69081;SDS011;56184;51.986;5.760;2022-12-07T11:33:35;23.63;;;8.32;;
69081;SDS011;56184;51.986;5.760;2022-12-07T11:36:33;11.75;;;4.28;;
69081;SDS011;56184;51.986;5.760;2022-12-07T11:39:01;7.85;;;1.38;;
69081;SDS011;56184;51.986;5.760;2022-12-07T11:41:47;10.85;;;1.70;;
69081;SDS011;56184;51.986;5.760;2022-12-07T11:44:33;6.53;;;1.45;;
69081;SDS011;56184;51.986;5.760;2022-12-07T11:47:45;5.93;;;1.60;;
69081;SDS011;56184;51.986;5.760;2022-12-07T11:52:58;5.10;;;1.83;;
69081;SDS011;56184;51.986;5.760;2022-12-07T11:55:43;6.95;;;1.45;;
69081;SDS011;56184;51.986;5.760;2022-12-07T12:01:06;4.57;;;1.50;;
69081;SDS011;56184;51.986;5.760;2022-12-07T12:03:34;6.35;;;1.75;;
69081;SDS011;56184;51.986;5.760;2022-12-07T12:06:03;9.20;;;1.70;;
69081;SDS011;56184;51.986;5.760;2022-12-07T12:21:11;5.20;;;1.48;;
69081;SDS011;56184;51.986;5.760;2022-12-07T12:26:31;6.50;;;3.15;;
69081;SDS011;56184;51.986;5.760;2022-12-07T12:29:06;7.13;;;1.65;;
69081;SDS011;56184;51.986;5.760;2022-12-07T12:31:46;7.20;;;1.38;;
69081;SDS011;56184;51.986;5.760;2022-12-07T12:34:37;5.88;;;1.58;;
69081;SDS011;56184;51.986;5.760;2022-12-07T12:37:39;5.35;;;1.48;;
69081;SDS011;56184;51.986;5.760;2022-12-07T12:42:54;3.95;;;1.33;;
69081;SDS011;56184;51.986;5.760;2022-12-07T12:51:35;10.85;;;2.90;;
69081;SDS011;56184;51.986;5.760;2022-12-07T12:54:18;4.70;;;2.17;;
69081;SDS011;56184;51.986;5.760;2022-12-07T13:02:28;15.90;;;6.20;;
69081;SDS011;56184;51.986;5.760;2022-12-07T13:15:43;6.15;;;1.90;;
69081;SDS011;56184;51.986;5.760;2022-12-07T13:18:41;13.15;;;3.05;;
69081;SDS011;56184;51.986;5.760;2022-12-07T13:21:40;7.95;;;1.50;;
69081;SDS011;56184;51.986;5.760;2022-12-07T13:24:14;5.20;;;2.72;;
69081;SDS011;56184;51.986;5.760;2022-12-07T13:26:45;6.40;;;1.67;;
69081;SDS011;56184;51.986;5.760;2022-12-07T13:29:15;6.05;;;1.35;;
69081;SDS011;56184;51.986;5.760;2022-12-07T13:34:48;9.10;;;2.30;;
69081;SDS011;56184;51.986;5.760;2022-12-07T13:37:15;9.77;;;1.40;;
69081;SDS011;56184;51.986;5.760;2022-12-07T13:39:49;7.38;;;1.10;;
69081;SDS011;56184;51.986;5.760;2022-12-07T13:45:20;4.53;;;1.25;;
69081;SDS011;56184;51.986;5.760;2022-12-07T13:48:36;4.35;;;1.02;;
69081;SDS011;56184;51.986;5.760;2022-12-07T13:54:11;4.82;;;1.23;;
69081;SDS011;56184;51.986;5.760;2022-12-07T13:56:50;4.63;;;1.20;;
69081;SDS011;56184;51.986;5.760;2022-12-07T13:59:26;3.83;;;1.25;;
69081;SDS011;56184;51.986;5.760;2022-12-07T14:01:52;6.05;;;1.23;;
69081;SDS011;56184;51.986;5.760;2022-12-07T14:04:28;9.80;;;2.08;;
69081;SDS011;56184;51.986;5.760;2022-12-07T14:06:54;8.20;;;1.50;;
69081;SDS011;56184;51.986;5.760;2022-12-07T14:09:22;4.80;;;1.63;;
69081;SDS011;56184;51.986;5.760;2022-12-07T14:11:50;9.50;;;4.25;;
69081;SDS011;56184;51.986;5.760;2022-12-07T14:14:21;10.73;;;4.35;;
69081;SDS011;56184;51.986;5.760;2022-12-07T14:17:34;8.18;;;2.67;;
69081;SDS011;56184;51.986;5.760;2022-12-07T14:19:51;7.22;;;3.80;;
69081;SDS011;56184;51.986;5.760;2022-12-07T14:22:25;7.63;;;3.67;;
69081;SDS011;56184;51.986;5.760;2022-12-07T14:24:57;11.43;;;3.55;;
69081;SDS011;56184;51.986;5.760;2022-12-07T14:27:48;6.30;;;3.65;;
69081;SDS011;56184;51.986;5.760;2022-12-07T14:30:15;5.22;;;2.85;;
69081;SDS011;56184;51.986;5.760;2022-12-07T14:32:42;6.63;;;2.58;;
69081;SDS011;56184;51.986;5.760;2022-12-07T14:35:13;6.63;;;2.92;;
69081;SDS011;56184;51.986;5.760;2022-12-07T14:37:41;6.13;;;1.90;;
69081;SDS011;56184;51.986;5.760;2022-12-07T14:40:12;7.03;;;2.08;;
69081;SDS011;56184;51.986;5.760;2022-12-07T14:42:50;5.38;;;1.20;;
69081;SDS011;56184;51.986;5.760;2022-12-07T14:45:19;10.63;;;3.10;;
69081;SDS011;56184;51.986;5.760;2022-12-07T14:47:46;8.02;;;1.90;;
69081;SDS011;56184;51.986;5.760;2022-12-07T14:50:13;5.28;;;1.67;;
69081;SDS011;56184;51.986;5.760;2022-12-07T14:53:10;6.22;;;1.25;;
69081;SDS011;56184;51.986;5.760;2022-12-07T14:55:50;4.65;;;1.40;;
69081;SDS011;56184;51.986;5.760;2022-12-07T14:58:16;5.18;;;1.20;;
69081;SDS011;56184;51.986;5.760;2022-12-07T15:00:42;4.38;;;1.10;;
69081;SDS011;56184;51.986;5.760;2022-12-07T15:03:08;6.82;;;1.40;;
69081;SDS011;56184;51.986;5.760;2022-12-07T15:05:34;5.40;;;1.45;;
69081;SDS011;56184;51.986;5.760;2022-12-07T15:08:06;4.20;;;1.60;;
69081;SDS011;56184;51.986;5.760;2022-12-07T15:10:37;4.82;;;1.90;;
69081;SDS011;56184;51.986;5.760;2022-12-07T15:13:04;12.95;;;2.38;;
69081;SDS011;56184;51.986;5.760;2022-12-07T15:15:49;7.15;;;2.05;;
69081;SDS011;56184;51.986;5.760;2022-12-07T15:18:16;6.07;;;2.05;;
69081;SDS011;56184;51.986;5.760;2022-12-07T15:20:42;6.93;;;2.03;;
69081;SDS011;56184;51.986;5.760;2022-12-07T15:23:08;6.93;;;2.20;;
69081;SDS011;56184;51.986;5.760;2022-12-07T15:25:35;10.00;;;2.10;;
69081;SDS011;56184;51.986;5.760;2022-12-07T15:28:07;4.90;;;2.00;;
69081;SDS011;56184;51.986;5.760;2022-12-07T15:30:33;8.18;;;2.13;;
69081;SDS011;56184;51.986;5.760;2022-12-07T15:32:58;8.32;;;1.95;;
69081;SDS011;56184;51.986;5.760;2022-12-07T15:35:24;3.65;;;1.98;;
69081;SDS011;56184;51.986;5.760;2022-12-07T15:37:49;7.60;;;2.25;;
69081;SDS011;56184;51.986;5.760;2022-12-07T15:40:15;5.32;;;1.90;;
69081;SDS011;56184;51.986;5.760;2022-12-07T15:42:42;7.40;;;2.03;;
69081;SDS011;56184;51.986;5.760;2022-12-07T15:45:08;8.30;;;2.17;;
69081;SDS011;56184;51.986;5.760;2022-12-07T15:47:38;5.38;;;1.60;;
69081;SDS011;56184;51.986;5.760;2022-12-07T15:52:36;8.77;;;2.03;;
69081;SDS011;56184;51.986;5.760;2022-12-07T15:55:03;7.22;;;1.90;;
69081;SDS011;56184;51.986;5.760;2022-12-07T15:57:29;7.47;;;1.98;;
69081;SDS011;56184;51.986;5.760;2022-12-07T15:59:55;4.20;;;1.60;;
69081;SDS011;56184;51.986;5.760;2022-12-07T16:02:21;6.07;;;1.90;;
69081;SDS011;56184;51.986;5.760;2022-12-07T16:04:47;6.00;;;1.50;;
69081;SDS011;56184;51.986;5.760;2022-12-07T16:07:13;4.90;;;1.70;;
69081;SDS011;56184;51.986;5.760;2022-12-07T16:09:40;5.45;;;1.50;;
69081;SDS011;56184;51.986;5.760;2022-12-07T16:15:02;6.10;;;1.92;;
69081;SDS011;56184;51.986;5.760;2022-12-07T16:17:28;6.90;;;2.00;;
69081;SDS011;56184;51.986;5.760;2022-12-07T16:19:56;5.85;;;2.10;;
69081;SDS011;56184;51.986;5.760;2022-12-07T16:25:19;3.80;;;1.65;;
69081;SDS011;56184;51.986;5.760;2022-12-07T16:28:18;4.25;;;1.35;;
69081;SDS011;56184;51.986;5.760;2022-12-07T16:30:43;5.27;;;1.80;;
69081;SDS011;56184;51.986;5.760;2022-12-07T16:33:20;4.30;;;1.40;;
69081;SDS011;56184;51.986;5.760;2022-12-07T16:38:41;5.68;;;1.90;;
69081;SDS011;56184;51.986;5.760;2022-12-07T16:41:07;7.38;;;2.33;;
69081;SDS011;56184;51.986;5.760;2022-12-07T16:43:34;6.28;;;2.00;;
69081;SDS011;56184;51.986;5.760;2022-12-07T16:46:00;4.60;;;1.65;;
69081;SDS011;56184;51.986;5.760;2022-12-07T16:48:26;2.92;;;1.50;;
69081;SDS011;56184;51.986;5.760;2022-12-07T16:50:52;5.00;;;1.58;;
69081;SDS011;56184;51.986;5.760;2022-12-07T16:56:04;3.25;;;1.67;;
69081;SDS011;56184;51.986;5.760;2022-12-07T16:58:36;5.32;;;1.95;;
69081;SDS011;56184;51.986;5.760;2022-12-07T17:01:11;2.63;;;1.65;;
69081;SDS011;56184;51.986;5.760;2022-12-07T17:03:39;3.13;;;1.80;;
69081;SDS011;56184;51.986;5.760;2022-12-07T17:06:21;4.65;;;1.90;;
69081;SDS011;56184;51.986;5.760;2022-12-07T17:08:49;4.03;;;1.67;;
69081;SDS011;56184;51.986;5.760;2022-12-07T17:11:17;5.10;;;1.92;;
69081;SDS011;56184;51.986;5.760;2022-12-07T17:13:45;9.32;;;2.03;;
69081;SDS011;56184;51.986;5.760;2022-12-07T17:16:32;4.93;;;2.15;;
69081;SDS011;56184;51.986;5.760;2022-12-07T17:18:59;8.70;;;3.60;;
69081;SDS011;56184;51.986;5.760;2022-12-07T17:21:28;12.00;;;4.28;;
69081;SDS011;56184;51.986;5.760;2022-12-07T17:23:53;14.50;;;5.15;;
69081;SDS011;56184;51.986;5.760;2022-12-07T17:26:20;5.32;;;3.00;;
69081;SDS011;56184;51.986;5.760;2022-12-07T17:28:48;5.78;;;2.95;;
69081;SDS011;56184;51.986;5.760;2022-12-07T17:31:14;9.25;;;3.38;;
69081;SDS011;56184;51.986;5.760;2022-12-07T17:36:34;6.40;;;3.13;;
69081;SDS011;56184;51.986;5.760;2022-12-07T17:38:58;9.68;;;3.80;;
69081;SDS011;56184;51.986;5.760;2022-12-07T17:41:25;8.98;;;3.42;;
69081;SDS011;56184;51.986;5.760;2022-12-07T17:44:12;7.05;;;3.40;;
69081;SDS011;56184;51.986;5.760;2022-12-07T17:49:50;5.57;;;2.83;;
69081;SDS011;56184;51.986;5.760;2022-12-07T17:52:19;5.07;;;2.85;;
69081;SDS011;56184;51.986;5.760;2022-12-07T17:55:03;7.57;;;3.60;;
69081;SDS011;56184;51.986;5.760;2022-12-07T17:57:29;10.90;;;3.78;;
69081;SDS011;56184;51.986;5.760;2022-12-07T17:59:55;9.57;;;4.03;;
69081;SDS011;56184;51.986;5.760;2022-12-07T18:02:21;7.35;;;3.10;;
69081;SDS011;56184;51.986;5.760;2022-12-07T18:04:53;4.82;;;2.80;;
69081;SDS011;56184;51.986;5.760;2022-12-07T18:07:31;5.60;;;2.92;;
69081;SDS011;56184;51.986;5.760;2022-12-07T18:10:02;5.43;;;2.67;;
69081;SDS011;56184;51.986;5.760;2022-12-07T18:12:34;4.43;;;2.50;;
69081;SDS011;56184;51.986;5.760;2022-12-07T18:15:05;7.28;;;2.65;;
69081;SDS011;56184;51.986;5.760;2022-12-07T18:17:41;9.05;;;3.20;;
69081;SDS011;56184;51.986;5.760;2022-12-07T18:20:12;6.03;;;2.47;;
69081;SDS011;56184;51.986;5.760;2022-12-07T18:22:40;5.78;;;2.80;;
69081;SDS011;56184;51.986;5.760;2022-12-07T18:25:12;7.88;;;3.00;;
69081;SDS011;56184;51.986;5.760;2022-12-07T18:27:43;9.95;;;3.13;;
69081;SDS011;56184;51.986;5.760;2022-12-07T18:30:09;6.10;;;2.92;;
69081;SDS011;56184;51.986;5.760;2022-12-07T18:32:35;6.85;;;2.30;;
69081;SDS011;56184;51.986;5.760;2022-12-07T18:35:03;3.97;;;1.98;;